Search for airport 
image banner adimage banner adimage banner ad
image banner ad

KUKI - Ukiah Muni

Located in Ukiah, United States

ICAO - UKI, IATA -

Data provided by Airmate  

General information

Coordinates: N39°7'33" W123°12'3"
Elevation is 617 feet MSL.
Magnetic variation is 17° East
View others Airports in California

Operational data

Special qualification required
Current time UTC:
Current local time:
Weather
METAR: KUKI 291356Z AUTO 00000KT 8SM CLR 19/11 A2995 RMK AO2 SLP131 T01890111
TAF: KUKI 291123Z 2912/3012 VRB03KT P6SM SKC FM292000 14007KT P6SM SKC FM300100 30008KT P6SM SKC FM300400 VRB03KT P6SM SKC
View NOTAMs / SUP AIP / TFR affecting this airport [VIEW]
Communications frequencies: [VIEW]

Runways:

RWY identifierQFULength (ft)Width (ft)SurfaceLDA (ft)
15168°4423150ASPH
33348°4423150ASPH

Airport contact information

Address: Ukiah United States

Other aviation service providers

Flight schools

Ukiah Aviation

Ukiah Aviation
dhudsons@comcast.net+1(707)463-2655

Satellite view of KUKI